createdAt,value
2023-04-26T00:02:04.801Z,16.35
2023-04-26T00:04:32.326Z,19.35
2023-04-26T00:07:00.659Z,20.30
2023-04-26T00:09:27.548Z,15.23
2023-04-26T00:11:54.392Z,17.77
2023-04-26T00:14:23.505Z,17.45
2023-04-26T00:16:50.571Z,20.73
2023-04-26T00:19:18.243Z,17.83
2023-04-26T00:21:45.140Z,20.58
2023-04-26T00:24:12.235Z,15.88
2023-04-26T00:26:39.085Z,15.13
2023-04-26T00:29:06.125Z,19.40
2023-04-26T00:31:35.109Z,14.32
2023-04-26T00:34:01.999Z,17.13
2023-04-26T00:36:28.905Z,14.32
2023-04-26T00:38:55.907Z,16.95
2023-04-26T00:41:22.767Z,19.45
2023-04-26T00:43:49.583Z,17.63
2023-04-26T00:46:17.123Z,10.15
2023-04-26T00:48:44.427Z,16.80
2023-04-26T00:51:12.063Z,13.20
2023-04-26T00:53:39.069Z,9.90
2023-04-26T00:56:12.559Z,9.68
2023-04-26T00:58:39.582Z,11.05
2023-04-26T01:01:07.817Z,9.43
2023-04-26T01:03:35.098Z,9.27
2023-04-26T01:06:02.105Z,9.95
2023-04-26T01:08:29.087Z,10.05
2023-04-26T01:10:56.422Z,13.20
2023-04-26T01:13:23.405Z,10.88
2023-04-26T01:15:50.244Z,6.47
2023-04-26T01:18:17.132Z,6.20
2023-04-26T01:20:44.058Z,12.40
2023-04-26T01:23:11.887Z,9.63
2023-04-26T01:25:39.010Z,12.25
2023-04-26T01:28:06.032Z,7.90
2023-04-26T01:30:32.990Z,9.38
2023-04-26T01:32:59.927Z,7.18
2023-04-26T01:35:26.875Z,14.45
2023-04-26T01:37:53.802Z,10.45
2023-04-26T01:40:21.243Z,9.98
2023-04-26T01:42:48.036Z,7.80
2023-04-26T01:45:14.927Z,9.63
2023-04-26T01:47:41.834Z,16.60
2023-04-26T01:50:11.537Z,6.97
2023-04-26T01:52:38.372Z,11.63
2023-04-26T01:55:05.997Z,8.82
2023-04-26T01:57:32.903Z,8.15
2023-04-26T02:00:02.667Z,8.80
2023-04-26T02:02:29.614Z,9.10
2023-04-26T02:04:56.565Z,6.90
2023-04-26T02:07:23.563Z,9.65
2023-04-26T02:09:52.696Z,7.30
2023-04-26T02:12:22.107Z,10.48
2023-04-26T02:14:48.977Z,8.20
2023-04-26T02:17:16.433Z,7.05
2023-04-26T02:19:43.306Z,12.40
2023-04-26T02:22:11.977Z,10.85
2023-04-26T02:24:38.890Z,7.70
2023-04-26T02:27:05.854Z,7.07
2023-04-26T02:29:43.636Z,6.95
2023-04-26T02:32:12.447Z,6.82
2023-04-26T02:34:39.375Z,7.38
2023-04-26T02:37:06.245Z,9.80
2023-04-26T02:39:33.091Z,8.65
2023-04-26T02:42:00.237Z,12.18
2023-04-26T02:44:31.025Z,12.90
2023-04-26T02:46:58.431Z,9.05
2023-04-26T02:49:25.411Z,9.70
2023-04-26T02:51:52.240Z,7.10
2023-04-26T02:54:19.125Z,7.32
2023-04-26T02:56:46.068Z,9.48
2023-04-26T02:59:13.003Z,8.18
2023-04-26T03:01:39.883Z,11.38
2023-04-26T03:04:07.706Z,7.78
2023-04-26T03:06:35.299Z,7.53
2023-04-26T03:09:02.229Z,6.28
2023-04-26T03:11:29.077Z,18.20
2023-04-26T03:13:55.905Z,5.47
2023-04-26T03:16:23.477Z,8.75
2023-04-26T03:18:50.938Z,5.32
2023-04-26T03:21:17.910Z,11.02
2023-04-26T03:23:47.288Z,13.00
2023-04-26T03:26:14.606Z,8.60
2023-04-26T03:28:41.981Z,10.05
2023-04-26T03:31:08.853Z,12.13
2023-04-26T03:33:35.856Z,9.93
2023-04-26T03:36:02.795Z,8.80
2023-04-26T03:38:31.744Z,9.38
2023-04-26T03:40:58.680Z,12.15
2023-04-26T03:43:25.566Z,5.80
2023-04-26T03:45:53.048Z,8.38
2023-04-26T03:48:19.884Z,9.93
2023-04-26T03:50:46.920Z,8.75
2023-04-26T03:53:16.249Z,8.95
2023-04-26T03:55:43.117Z,6.53
2023-04-26T03:58:13.034Z,9.95
2023-04-26T04:00:41.315Z,3.67
2023-04-26T04:03:08.668Z,8.02
2023-04-26T04:05:35.893Z,9.75
2023-04-26T04:08:03.184Z,11.18
2023-04-26T04:10:30.083Z,7.85
2023-04-26T04:12:59.364Z,8.55
2023-04-26T04:15:26.929Z,5.68
2023-04-26T04:17:53.831Z,10.00
2023-04-26T04:20:21.526Z,10.68
2023-04-26T04:22:48.462Z,9.93
2023-04-26T04:25:15.262Z,6.30
2023-04-26T04:27:42.772Z,7.47
2023-04-26T04:30:10.253Z,11.00
2023-04-26T04:32:39.446Z,11.65
2023-04-26T04:35:07.496Z,11.20
2023-04-26T04:37:34.957Z,10.23
2023-04-26T04:40:01.985Z,9.82
2023-04-26T04:42:29.065Z,9.35
2023-04-26T04:44:57.029Z,13.52
2023-04-26T04:47:24.380Z,9.85
2023-04-26T04:49:53.110Z,9.77
2023-04-26T04:52:21.938Z,7.00
2023-04-26T04:54:49.462Z,8.57
2023-04-26T04:57:16.950Z,12.80
2023-04-26T04:59:43.855Z,7.72
2023-04-26T05:02:10.860Z,12.43
2023-04-26T05:04:37.831Z,11.10
2023-04-26T05:07:05.882Z,8.25
2023-04-26T05:09:32.710Z,11.32
2023-04-26T05:11:59.641Z,10.55
2023-04-26T05:14:26.527Z,8.70
2023-04-26T05:16:53.492Z,9.43
2023-04-26T05:19:20.610Z,7.93
2023-04-26T05:21:47.462Z,10.38
2023-04-26T05:24:14.356Z,10.40
2023-04-26T05:26:41.232Z,13.60
2023-04-26T05:29:08.103Z,10.63
2023-04-26T05:31:35.045Z,10.32
2023-04-26T05:34:01.998Z,12.73
2023-04-26T05:36:30.037Z,9.80
2023-04-26T05:38:57.071Z,5.68
2023-04-26T05:41:26.196Z,8.43
2023-04-26T05:43:53.288Z,9.02
2023-04-26T05:46:20.400Z,8.07
2023-04-26T05:48:47.244Z,8.73
2023-04-26T05:51:14.197Z,15.02
2023-04-26T05:53:41.824Z,11.32
2023-04-26T05:56:08.693Z,11.73
2023-04-26T05:58:35.795Z,8.90
2023-04-26T06:01:02.959Z,12.65
2023-04-26T06:03:30.406Z,7.20
2023-04-26T06:05:57.538Z,12.00
2023-04-26T06:08:24.401Z,7.65
2023-04-26T06:10:51.324Z,12.07
2023-04-26T06:13:18.156Z,9.05
2023-04-26T06:15:45.394Z,11.77
2023-04-26T06:18:12.345Z,9.40
2023-04-26T06:20:39.287Z,7.03
2023-04-26T06:23:06.115Z,10.23
2023-04-26T06:25:34.086Z,10.88
2023-04-26T06:28:01.126Z,14.30
2023-04-26T06:30:28.031Z,11.15
2023-04-26T06:32:54.996Z,7.22
2023-04-26T06:35:24.720Z,9.38
2023-04-26T06:37:51.670Z,7.38
2023-04-26T06:40:18.825Z,9.35
2023-04-26T06:42:46.001Z,9.93
2023-04-26T06:45:12.867Z,10.57
2023-04-26T06:47:39.864Z,9.60
2023-04-26T06:50:07.737Z,7.85
2023-04-26T06:52:34.780Z,8.93
2023-04-26T06:55:03.470Z,7.95
2023-04-26T06:57:30.499Z,9.68
2023-04-26T06:59:58.176Z,12.73
2023-04-26T07:02:25.485Z,7.82
2023-04-26T07:04:53.169Z,11.95
2023-04-26T07:07:20.708Z,14.70
2023-04-26T07:09:47.693Z,12.52
2023-04-26T07:12:14.757Z,7.38
2023-04-26T07:14:43.375Z,6.13
2023-04-26T07:17:10.853Z,5.95
2023-04-26T07:19:37.737Z,10.55
2023-04-26T07:22:04.903Z,10.60
2023-04-26T07:24:31.745Z,7.57
2023-04-26T07:26:58.618Z,7.00
2023-04-26T07:29:25.636Z,9.13
2023-04-26T07:31:52.848Z,11.68
2023-04-26T07:34:19.834Z,10.68
2023-04-26T07:36:47.041Z,10.18
2023-04-26T07:39:18.193Z,7.70
2023-04-26T07:41:45.125Z,8.60
2023-04-26T07:44:11.967Z,7.25
2023-04-26T07:46:39.214Z,10.77
2023-04-26T07:49:08.284Z,5.07
2023-04-26T07:51:36.767Z,5.07
2023-04-26T07:54:03.917Z,7.32
2023-04-26T07:56:30.858Z,13.43
2023-04-26T07:58:57.671Z,9.27
2023-04-26T08:01:24.533Z,9.90
2023-04-26T08:03:51.725Z,9.90
2023-04-26T08:06:19.074Z,11.07
2023-04-26T08:08:49.361Z,9.95
2023-04-26T08:11:16.836Z,9.70
2023-04-26T08:13:46.665Z,13.73
2023-04-26T08:16:13.762Z,6.05
2023-04-26T08:18:40.629Z,7.43
2023-04-26T08:21:09.719Z,11.90
2023-04-26T08:23:36.949Z,6.38
2023-04-26T08:26:04.246Z,8.63
2023-04-26T08:28:33.331Z,7.82
2023-04-26T08:31:00.257Z,18.27
2023-04-26T08:33:27.307Z,10.80
2023-04-26T08:35:54.204Z,7.03
2023-04-26T08:38:22.823Z,8.50
2023-04-26T08:40:49.801Z,8.88
2023-04-26T08:43:17.737Z,10.98
2023-04-26T08:45:47.187Z,7.95
2023-04-26T08:48:18.259Z,7.57
2023-04-26T08:50:48.459Z,12.07
2023-04-26T08:53:17.861Z,8.45
2023-04-26T08:55:51.696Z,6.22
2023-04-26T08:58:19.010Z,11.52
2023-04-26T09:00:46.286Z,8.55
2023-04-26T09:03:13.755Z,8.63
2023-04-26T09:05:44.390Z,7.88
2023-04-26T09:08:17.730Z,9.93
2023-04-26T09:10:44.956Z,9.02
2023-04-26T09:13:12.492Z,6.55
2023-04-26T09:15:39.916Z,11.20
2023-04-26T09:18:21.410Z,6.30
2023-04-26T09:21:03.139Z,8.95
2023-04-26T09:23:30.043Z,7.97
2023-04-26T09:25:56.918Z,9.30
2023-04-26T09:28:24.758Z,16.85
2023-04-26T09:30:51.642Z,9.68
2023-04-26T09:33:19.654Z,8.35
2023-04-26T09:35:46.752Z,9.93
2023-04-26T09:38:15.718Z,8.93
2023-04-26T09:40:47.433Z,8.35
2023-04-26T09:43:15.052Z,4.40
2023-04-26T09:45:54.102Z,9.43
2023-04-26T09:48:22.932Z,7.55
2023-04-26T09:50:55.311Z,13.50
2023-04-26T09:53:39.234Z,6.65
2023-04-26T09:56:08.750Z,7.32
2023-04-26T09:58:58.144Z,9.70
2023-04-26T10:01:26.579Z,9.43
2023-04-26T10:03:53.707Z,9.40
2023-04-26T10:06:20.725Z,12.57
2023-04-26T10:08:47.757Z,6.72
2023-04-26T10:11:14.566Z,12.30
2023-04-26T10:13:42.188Z,7.15
2023-04-26T10:16:10.141Z,5.60
2023-04-26T10:18:37.689Z,8.63
2023-04-26T10:21:31.620Z,5.28
2023-04-26T10:24:00.437Z,7.22
2023-04-26T10:26:51.726Z,6.28
2023-04-26T10:29:20.967Z,7.60
2023-04-26T10:32:06.085Z,6.63
2023-04-26T10:34:34.640Z,8.27
2023-04-26T10:37:18.376Z,10.55
2023-04-26T10:39:46.742Z,11.48
2023-04-26T10:42:25.094Z,6.93
2023-04-26T10:44:57.319Z,7.90
2023-04-26T10:47:32.414Z,12.80
2023-04-26T10:50:17.527Z,9.73
2023-04-26T10:53:05.519Z,6.78
2023-04-26T10:55:40.480Z,8.57
2023-04-26T10:58:32.889Z,7.97
2023-04-26T11:01:06.623Z,13.07
2023-04-26T11:03:33.799Z,10.00
2023-04-26T11:06:00.900Z,12.18
2023-04-26T11:08:30.767Z,9.35
2023-04-26T11:11:06.192Z,6.68
2023-04-26T11:13:34.219Z,10.77
2023-04-26T11:16:06.420Z,12.18
2023-04-26T11:21:00.559Z,11.02
2023-04-26T11:23:31.635Z,6.78
2023-04-26T11:26:03.554Z,12.88
2023-04-26T11:28:34.107Z,9.40
2023-04-26T11:31:02.088Z,6.65
2023-04-26T11:33:29.068Z,5.18
2023-04-26T11:35:57.520Z,10.10
2023-04-26T11:38:25.566Z,7.10
2023-04-26T11:41:03.717Z,5.63
2023-04-26T11:43:35.848Z,9.60
2023-04-26T11:46:04.038Z,6.85
2023-04-26T11:48:31.904Z,10.00
2023-04-26T11:50:59.650Z,9.27
2023-04-26T11:53:37.892Z,11.70
2023-04-26T11:56:18.676Z,6.60
2023-04-26T11:58:49.671Z,8.55
2023-04-26T12:01:26.083Z,9.57
2023-04-26T12:03:57.833Z,9.77
2023-04-26T12:06:45.717Z,13.70
2023-04-26T12:09:13.331Z,11.35
2023-04-26T12:11:40.479Z,4.55
2023-04-26T12:14:11.531Z,7.43
2023-04-26T12:16:38.671Z,6.18
2023-04-26T12:19:09.179Z,7.97
2023-04-26T12:21:45.265Z,5.22
2023-04-26T12:24:43.269Z,12.98
2023-04-26T12:27:21.040Z,6.63
2023-04-26T12:29:47.915Z,7.93
2023-04-26T12:32:14.742Z,5.40
2023-04-26T12:34:41.677Z,3.70
2023-04-26T12:37:10.776Z,3.83
2023-04-26T12:39:37.621Z,8.50
2023-04-26T12:42:04.682Z,6.47
2023-04-26T12:44:34.005Z,5.43
2023-04-26T12:47:00.906Z,6.22
2023-04-26T12:49:29.693Z,7.55
2023-04-26T12:51:57.709Z,9.32
2023-04-26T12:54:24.481Z,8.30
2023-04-26T12:56:51.361Z,7.45
2023-04-26T12:59:18.219Z,10.38
2023-04-26T13:01:45.053Z,4.65
2023-04-26T13:04:12.192Z,5.07
2023-04-26T13:06:39.201Z,3.97
2023-04-26T13:09:08.204Z,6.10
2023-04-26T13:11:35.094Z,7.00
2023-04-26T13:14:02.287Z,6.50
2023-04-26T13:16:29.259Z,5.50
2023-04-26T13:18:56.364Z,8.55
2023-04-26T13:21:23.419Z,7.95
2023-04-26T13:23:50.178Z,9.25
2023-04-26T13:26:18.320Z,7.20
2023-04-26T13:28:45.219Z,7.18
2023-04-26T13:31:12.154Z,7.40
2023-04-26T13:33:39.019Z,6.30
2023-04-26T13:36:10.142Z,10.07
2023-04-26T13:38:37.063Z,8.27
2023-04-26T13:41:03.950Z,5.57
2023-04-26T13:43:30.822Z,5.10
2023-04-26T13:45:57.743Z,6.97
2023-04-26T13:48:24.688Z,13.60
2023-04-26T13:50:51.630Z,9.02
2023-04-26T13:53:19.862Z,6.25
2023-04-26T13:55:46.813Z,7.90
2023-04-26T13:58:16.062Z,3.83
2023-04-26T14:00:43.187Z,7.95
2023-04-26T14:03:10.556Z,12.90
2023-04-26T14:05:37.529Z,5.47
2023-04-26T14:08:04.557Z,8.93
2023-04-26T14:10:31.484Z,12.10
2023-04-26T14:12:58.377Z,5.35
2023-04-26T14:15:25.701Z,6.88
2023-04-26T14:17:52.541Z,8.48
2023-04-26T14:20:19.443Z,5.45
2023-04-26T14:22:46.483Z,3.50
2023-04-26T14:25:13.367Z,8.25
2023-04-26T14:27:40.471Z,5.50
2023-04-26T14:30:07.895Z,6.60
2023-04-26T14:32:34.867Z,6.55
2023-04-26T14:35:04.586Z,6.72
2023-04-26T14:37:31.443Z,5.80
2023-04-26T14:39:58.295Z,8.27
2023-04-26T14:42:25.141Z,4.97
2023-04-26T14:44:52.278Z,6.32
2023-04-26T14:47:19.171Z,4.35
2023-04-26T14:49:48.366Z,3.95
2023-04-26T14:52:15.488Z,7.47
2023-04-26T14:54:42.636Z,7.38
2023-04-26T14:57:10.492Z,10.55
2023-04-26T14:59:37.484Z,5.30
2023-04-26T15:02:05.355Z,9.00
2023-04-26T15:04:32.687Z,11.85
2023-04-26T15:07:02.756Z,4.00
2023-04-26T15:09:32.317Z,3.78
2023-04-26T15:11:59.148Z,6.15
2023-04-26T15:14:26.039Z,2.83
2023-04-26T15:16:52.971Z,5.82
2023-04-26T15:19:19.886Z,14.07
2023-04-26T15:21:46.674Z,7.70
2023-04-26T15:24:13.489Z,5.10
2023-04-26T15:26:40.623Z,10.10
2023-04-26T15:29:07.481Z,6.38
2023-04-26T15:31:34.870Z,11.55
2023-04-26T15:34:03.896Z,13.45
2023-04-26T15:36:30.799Z,3.63
2023-04-26T15:38:59.797Z,6.05
2023-04-26T15:41:28.786Z,7.50
2023-04-26T15:43:55.833Z,7.13
2023-04-26T15:46:23.236Z,13.65
2023-04-26T15:48:50.636Z,7.72
2023-04-26T15:51:17.631Z,10.23
2023-04-26T15:53:46.874Z,7.55
2023-04-26T15:56:15.558Z,6.72
2023-04-26T15:58:46.109Z,4.32
2023-04-26T16:01:13.499Z,6.72
2023-04-26T16:03:42.179Z,7.03
2023-04-26T16:06:12.485Z,7.45
2023-04-26T16:08:41.432Z,3.95
2023-04-26T16:11:08.460Z,7.20
2023-04-26T16:13:35.349Z,11.60
2023-04-26T16:16:02.253Z,7.07
2023-04-26T16:18:29.154Z,5.35
2023-04-26T16:21:04.597Z,5.25
2023-04-26T16:23:31.812Z,7.30
2023-04-26T16:26:01.533Z,9.18
2023-04-26T16:28:28.465Z,8.05
2023-04-26T16:30:56.007Z,6.38
2023-04-26T16:33:23.311Z,6.13
2023-04-26T16:35:55.144Z,7.70
2023-04-26T16:38:25.267Z,6.40
2023-04-26T16:41:01.779Z,7.75
2023-04-26T16:43:30.265Z,3.55
2023-04-26T16:46:01.757Z,7.35
2023-04-26T16:48:31.278Z,10.70
2023-04-26T16:50:58.400Z,8.57
2023-04-26T16:53:25.323Z,8.48
2023-04-26T16:55:52.288Z,15.27
2023-04-26T16:58:19.851Z,9.52
2023-04-26T17:00:47.064Z,10.07
2023-04-26T17:03:14.194Z,8.45
2023-04-26T17:05:48.656Z,6.35
2023-04-26T17:08:19.010Z,7.55
2023-04-26T17:10:46.924Z,8.68
2023-04-26T17:13:13.921Z,8.35
2023-04-26T17:15:41.751Z,13.35
2023-04-26T17:18:09.395Z,9.40
2023-04-26T17:20:36.339Z,9.00
2023-04-26T17:23:04.335Z,5.22
2023-04-26T17:25:31.631Z,7.47
2023-04-26T17:27:59.046Z,8.88
2023-04-26T17:30:26.184Z,9.07
2023-04-26T17:32:53.127Z,7.32
2023-04-26T17:35:20.343Z,10.35
2023-04-26T17:37:50.113Z,9.20
2023-04-26T17:40:18.688Z,12.85
2023-04-26T17:42:46.553Z,8.95
2023-04-26T17:45:14.411Z,8.30
2023-04-26T17:47:42.929Z,6.57
2023-04-26T17:50:11.237Z,10.20
2023-04-26T17:52:40.915Z,15.13
2023-04-26T17:55:10.098Z,11.23
2023-04-26T17:57:37.404Z,17.77
2023-04-26T18:00:06.749Z,17.33
2023-04-26T18:02:35.048Z,19.60
2023-04-26T18:05:02.558Z,19.02
2023-04-26T18:07:29.465Z,24.38
2023-04-26T18:09:58.411Z,17.35
2023-04-26T18:12:26.016Z,16.98
2023-04-26T18:14:52.942Z,15.88
2023-04-26T18:17:20.253Z,16.08
2023-04-26T18:19:47.184Z,16.08
2023-04-26T18:22:14.010Z,14.65
2023-04-26T18:24:40.876Z,16.15
2023-04-26T18:27:07.843Z,12.00
2023-04-26T18:29:34.977Z,12.25
2023-04-26T18:32:01.782Z,18.85
2023-04-26T18:34:30.609Z,10.32
2023-04-26T18:36:59.730Z,12.25
2023-04-26T18:39:26.740Z,12.32
2023-04-26T18:41:53.865Z,18.70
2023-04-26T18:44:20.886Z,18.33
2023-04-26T18:46:48.099Z,15.27
2023-04-26T18:49:14.985Z,12.70
2023-04-26T18:51:44.088Z,10.35
2023-04-26T18:54:13.387Z,16.17
2023-04-26T18:56:41.568Z,13.98
2023-04-26T18:59:08.749Z,12.05
2023-04-26T19:01:39.553Z,13.30
2023-04-26T19:04:06.584Z,17.58
2023-04-26T19:06:33.652Z,22.20
2023-04-26T19:09:06.599Z,31.13
2023-04-26T19:11:33.449Z,19.45
2023-04-26T19:14:00.245Z,27.80
2023-04-26T19:16:27.206Z,32.78
2023-04-26T19:18:54.309Z,27.30
2023-04-26T19:21:21.251Z,23.17
2023-04-26T19:23:48.125Z,24.08
2023-04-26T19:26:14.940Z,25.67
2023-04-26T19:28:44.011Z,30.55
2023-04-26T19:31:12.139Z,33.60
2023-04-26T19:33:40.613Z,34.53
2023-04-26T19:36:09.308Z,29.05
2023-04-26T19:38:36.166Z,31.48
2023-04-26T19:41:03.253Z,27.25
2023-04-26T19:43:32.334Z,33.58
2023-04-26T19:45:59.405Z,25.60
2023-04-26T19:48:26.475Z,28.35
2023-04-26T19:50:53.312Z,28.17
2023-04-26T19:53:20.173Z,28.73
2023-04-26T19:55:48.804Z,30.63
2023-04-26T19:58:15.703Z,34.35
2023-04-26T20:00:43.818Z,31.17
2023-04-26T20:03:13.373Z,35.40
2023-04-26T20:05:42.393Z,30.05
2023-04-26T20:08:09.164Z,41.72
2023-04-26T20:10:36.137Z,37.67
2023-04-26T20:13:03.063Z,32.45
2023-04-26T20:15:32.243Z,34.97
2023-04-26T20:18:02.267Z,45.90
2023-04-26T20:20:29.291Z,33.63
2023-04-26T20:22:56.291Z,32.75
2023-04-26T20:25:23.233Z,46.97
2023-04-26T20:27:50.071Z,34.13
2023-04-26T20:30:17.055Z,39.80
2023-04-26T20:32:44.365Z,35.70
2023-04-26T20:35:13.689Z,45.00
2023-04-26T20:37:40.796Z,39.90
2023-04-26T20:40:08.335Z,31.90
2023-04-26T20:42:36.806Z,32.72
2023-04-26T20:45:03.959Z,33.17
2023-04-26T20:47:31.335Z,35.72
2023-04-26T20:49:58.213Z,38.55
2023-04-26T20:52:25.672Z,40.65
2023-04-26T20:54:52.713Z,51.60
2023-04-26T20:57:21.812Z,42.67
2023-04-26T20:59:48.726Z,39.78
2023-04-26T21:02:16.147Z,43.50
2023-04-26T21:04:43.416Z,41.00
2023-04-26T21:07:10.933Z,51.22
2023-04-26T21:09:37.996Z,46.63
2023-04-26T21:12:05.283Z,50.25
2023-04-26T21:14:32.282Z,54.83
2023-04-26T21:17:01.091Z,43.95
2023-04-26T21:19:28.020Z,48.30
2023-04-26T21:21:54.886Z,45.05
2023-04-26T21:24:21.916Z,44.33
2023-04-26T21:26:50.622Z,42.28
2023-04-26T21:29:17.402Z,45.00
2023-04-26T21:31:44.462Z,57.28
2023-04-26T21:34:14.475Z,44.33
2023-04-26T21:36:43.487Z,45.67
2023-04-26T21:39:11.174Z,40.78
2023-04-26T21:41:38.326Z,47.40
2023-04-26T21:44:05.231Z,47.17
2023-04-26T21:46:32.132Z,47.70
2023-04-26T21:48:59.039Z,52.13
2023-04-26T21:51:26.023Z,44.28
2023-04-26T21:53:52.856Z,50.13
2023-04-26T21:56:19.626Z,45.20
2023-04-26T21:58:48.722Z,43.30
2023-04-26T22:01:15.942Z,43.78
2023-04-26T22:03:42.962Z,39.88
2023-04-26T22:06:10.249Z,36.08
2023-04-26T22:08:37.175Z,47.10
2023-04-26T22:11:04.536Z,44.13
2023-04-26T22:13:34.576Z,42.88
2023-04-26T22:16:01.430Z,45.08
2023-04-26T22:18:29.408Z,36.95
2023-04-26T22:20:56.332Z,40.45
2023-04-26T22:23:23.195Z,42.63
2023-04-26T22:25:50.006Z,41.05
2023-04-26T22:28:16.817Z,39.75
2023-04-26T22:30:43.928Z,45.95
2023-04-26T22:33:12.294Z,33.88
2023-04-26T22:35:39.492Z,29.77
2023-04-26T22:38:06.382Z,29.55
2023-04-26T22:40:33.289Z,33.47
2023-04-26T22:43:00.295Z,32.38
2023-04-26T22:45:27.131Z,28.90
2023-04-26T22:47:54.035Z,33.83
2023-04-26T22:50:21.667Z,35.72
2023-04-26T22:52:49.841Z,36.30
2023-04-26T22:55:17.271Z,29.85
2023-04-26T22:57:44.150Z,27.92
2023-04-26T23:00:12.625Z,33.00
2023-04-26T23:02:39.975Z,34.08
2023-04-26T23:05:10.031Z,32.97
2023-04-26T23:07:37.986Z,30.13
2023-04-26T23:10:07.016Z,28.83
2023-04-26T23:12:33.949Z,35.67
2023-04-26T23:15:01.421Z,29.42
2023-04-26T23:17:28.358Z,23.42
2023-04-26T23:19:55.307Z,28.13
2023-04-26T23:22:22.220Z,24.08
2023-04-26T23:24:49.090Z,31.25
2023-04-26T23:27:16.244Z,25.50
2023-04-26T23:29:43.079Z,23.65
2023-04-26T23:32:09.946Z,22.17
2023-04-26T23:34:36.771Z,20.98
2023-04-26T23:37:07.236Z,18.20
2023-04-26T23:39:35.570Z,20.40
2023-04-26T23:42:02.473Z,23.00
2023-04-26T23:44:29.440Z,21.85
2023-04-26T23:46:58.864Z,22.98
2023-04-26T23:49:25.816Z,22.50
2023-04-26T23:51:52.686Z,20.23
2023-04-26T23:54:19.593Z,17.73
2023-04-26T23:56:46.639Z,20.58
2023-04-26T23:59:14.366Z,18.38
